Caryali — V7NX9 — position and weather

sailwx.info

Track history (hours):
 
Tides and Currents Weather Stations Pressure Air Temp Water Temp Dewpoint Dewpoint Depression Visibility Wind Speed Wind Dir Waves Ship Positions

Caryali

Last reported at 2018-Jun-02 14:15 UTC. Time now 2018-Jun-21 14:13 UTC.
Position N 39°16' E 003°05'.
Warning: this ship's position is 18 days out of date.

Length 28 m; draft 2.6 m.

Type: Pleasure craft. MMSI: 538070451.

Date/timePositionNaut miles runAvg speedWind from/ knotsBaromVisibWave heightAir tempDewpointWater temp
2018-Jun-02 14:15N 39°16' E 003°05'2 6.0
2018-Jun-02 13:59N 39°15' E 003°03'3 6.8
2018-Jun-02 13:30N 39°17' E 002°59'4 6.9
2018-Jun-02 12:59N 39°18' E 002°55'3 7.2
2018-Jun-02 12:30N 39°20' E 002°51'4 7.0
2018-Jun-02 12:00N 39°22' E 002°47'4 7.0
2018-Jun-02 11:30N 39°24' E 002°44'4 7.3
2018-Jun-02 11:00N 39°27' E 002°41'4 7.3
2018-Jun-02 10:30N 39°31' E 002°39'3 6.0
2018-Jun-02 10:00N 39°33' E 002°38'0 0.7
2018-Jun-02 09:22N 39°34' E 002°38'0 0.0
2018-Jun-02 08:58N 39°34' E 002°38'0 0.0
2018-Jun-02 08:28N 39°34' E 002°38'0 0.0
2018-Jun-02 07:58N 39°34' E 002°38'0 0.0
2018-Jun-02 07:28N 39°34' E 002°38'0 0.0
2018-Jun-02 06:49N 39°34' E 002°38'0 0.0
2018-Jun-02 06:28N 39°34' E 002°38'0 0.0
2018-Jun-02 05:58N 39°34' E 002°38'0 0.0
2018-Jun-02 05:28N 39°34' E 002°38'0 0.0
2018-Jun-02 04:58N 39°34' E 002°38'0 0.0
2018-Jun-02 04:25N 39°34' E 002°38'0 0.0
2018-Jun-02 03:58N 39°34' E 002°38'0 0.0
2018-Jun-02 03:25N 39°34' E 002°38'0 0.0
2018-Jun-02 02:58N 39°34' E 002°38'0 0.0
2018-Jun-02 02:28N 39°34' E 002°38'0 0.0
2018-Jun-02 01:58N 39°34' E 002°38'0 0.0
2018-Jun-02 01:28N 39°34' E 002°38'0 0.0
2018-Jun-02 00:58N 39°34' E 002°38'0 0.0
2018-Jun-02 00:28N 39°34' E 002°38'0 0.0
2018-Jun-01 23:58N 39°34' E 002°38'0 0.0
2018-Jun-01 23:28N 39°34' E 002°38'0 0.0
2018-Jun-01 22:58N 39°34' E 002°38'0 0.0
2018-Jun-01 22:28N 39°34' E 002°38'0 0.0
2018-Jun-01 21:58N 39°34' E 002°38'0 0.0
2018-Jun-01 21:28N 39°34' E 002°38'0 0.0
2018-Jun-01 20:58N 39°34' E 002°38'0 0.0
2018-Jun-01 20:28N 39°34' E 002°38'0 0.0
2018-Jun-01 19:58N 39°34' E 002°38'0 0.0
2018-Jun-01 19:28N 39°34' E 002°38'0 0.0
2018-Jun-01 18:58N 39°34' E 002°38'0 0.0
2018-Jun-01 18:28N 39°34' E 002°38'0 0.0
2018-Jun-01 17:58N 39°34' E 002°38'0 0.0
2018-Jun-01 17:28N 39°34' E 002°38'0 0.0
2018-Jun-01 16:58N 39°34' E 002°38'0 0.0
2018-Jun-01 16:28N 39°34' E 002°38'0 0.0
2018-Jun-01 15:58N 39°34' E 002°38'0 0.0
2018-Jun-01 15:28N 39°34' E 002°38'0 0.0
2018-Jun-01 14:58N 39°34' E 002°38'0 0.0
2018-Jun-01 14:28N 39°34' E 002°38'0 0.0
2018-Jun-01 13:58N 39°34' E 002°38'0 0.0
2018-Jun-01 13:28N 39°34' E 002°38'0 0.0
2018-Jun-01 12:58N 39°34' E 002°38'0 0.0
2018-Jun-01 12:28N 39°34' E 002°38'0 0.0
2018-Jun-01 11:58N 39°34' E 002°38'0 0.0
2018-Jun-01 11:28N 39°34' E 002°38'0 0.0
2018-Jun-01 10:58N 39°34' E 002°38'0 0.0
2018-Jun-01 10:28N 39°34' E 002°38'0 0.0
2018-Jun-01 09:58N 39°34' E 002°38'0 0.0
2018-Jun-01 09:28N 39°34' E 002°38'0 0.0
2018-Jun-01 08:58N 39°34' E 002°38'0 0.0
2018-Jun-01 08:28N 39°34' E 002°38'0 0.0
2018-Jun-01 07:58N 39°34' E 002°38'0 0.0
2018-Jun-01 07:28N 39°34' E 002°38'0 0.0
2018-Jun-01 06:58N 39°34' E 002°38'0 0.0
2018-Jun-01 06:28N 39°34' E 002°38'0 0.0
2018-Jun-01 05:58N 39°34' E 002°38'0 0.0
2018-Jun-01 05:28N 39°34' E 002°38'0 0.0
2018-Jun-01 04:58N 39°34' E 002°38'0 0.0
2018-Jun-01 04:28N 39°34' E 002°38'0 0.0
2018-Jun-01 03:58N 39°34' E 002°38'0 0.0
2018-Jun-01 03:28N 39°34' E 002°38'0 0.0
2018-Jun-01 02:58N 39°34' E 002°38'0 0.0
2018-Jun-01 02:28N 39°34' E 002°38'0 0.0
2018-Jun-01 01:58N 39°34' E 002°38'0 0.0
2018-Jun-01 01:28N 39°34' E 002°38'0 0.0
2018-Jun-01 00:58N 39°34' E 002°38'0 0.0
2018-Jun-01 00:28N 39°34' E 002°38'0 0.0
2018-May-31 23:58N 39°34' E 002°38'0 0.0
2018-May-31 23:28N 39°34' E 002°38'0 0.0
2018-May-31 22:58N 39°34' E 002°38'0 0.0
2018-May-31 22:28N 39°34' E 002°38'0 0.0
2018-May-31 21:58N 39°34' E 002°38'0 0.0
2018-May-31 21:28N 39°34' E 002°38'0 0.0
2018-May-31 20:58N 39°34' E 002°38'0 0.0
2018-May-31 20:28N 39°34' E 002°38'0 0.0
2018-May-31 19:58N 39°34' E 002°38'0 0.0
2018-May-31 19:28N 39°34' E 002°38'0 0.0
2018-May-31 18:58N 39°34' E 002°38'0 0.0
2018-May-31 18:28N 39°34' E 002°38'0 0.0
2018-May-31 17:58N 39°34' E 002°38'0 0.0
2018-May-31 17:28N 39°34' E 002°38'0 0.0
2018-May-31 16:58N 39°34' E 002°38'0 0.0
2018-May-31 16:28N 39°34' E 002°38'0 0.0
2018-May-31 15:58N 39°34' E 002°38'0 0.0
2018-May-31 15:28N 39°34' E 002°38'0 0.0
2018-May-31 14:58N 39°34' E 002°38'0 0.0
2018-May-31 14:28N 39°34' E 002°38'0 0.0
2018-May-31 13:58N 39°34' E 002°38'0 0.0
2018-May-31 13:28N 39°34' E 002°38'0 0.0
2018-May-31 12:58N 39°34' E 002°38'0 0.0
2018-May-31 12:30N 39°34' E 002°38'0 0.0
2018-May-31 12:00N 39°34' E 002°38'0 0.0
2018-May-31 11:30N 39°34' E 002°38'0 0.0
2018-May-31 11:00N 39°34' E 002°38'0 0.0
2018-May-31 10:30N 39°34' E 002°38'0 0.0
2018-May-31 10:00N 39°34' E 002°38'0 0.0
2018-May-31 09:30N 39°34' E 002°38'0 0.0
2018-May-31 09:00N 39°34' E 002°38'0 0.0
2018-May-31 08:30N 39°34' E 002°38'0 0.0
2018-May-31 08:00N 39°34' E 002°38'0 0.0
2018-May-31 07:30N 39°34' E 002°38'0 0.0
2018-May-31 07:00N 39°34' E 002°38'0 0.0
2018-May-31 06:30N 39°34' E 002°38'0 0.0
2018-May-31 06:00N 39°34' E 002°38'0 0.0
2018-May-31 05:30N 39°34' E 002°38'0 0.0
2018-May-31 05:00N 39°34' E 002°38'0 0.0
2018-May-31 04:30N 39°34' E 002°38'0 0.0
2018-May-31 04:00N 39°34' E 002°38'0 0.0
2018-May-31 03:30N 39°34' E 002°38'0 0.0
2018-May-31 03:00N 39°34' E 002°38'0 0.0
2018-May-31 02:30N 39°34' E 002°38'0 0.0
2018-May-31 02:00N 39°34' E 002°38'0 0.0
2018-May-31 01:30N 39°34' E 002°38'0 0.0
2018-May-31 01:00N 39°34' E 002°38'0 0.0
2018-May-31 00:30N 39°34' E 002°38'0 0.0
2018-May-31 00:00N 39°34' E 002°38'0 0.0
2018-May-30 23:30N 39°34' E 002°38'0 0.0
2018-May-30 23:00N 39°34' E 002°38'0 0.0
2018-May-30 22:30N 39°34' E 002°38'0 0.0
2018-May-30 22:00N 39°34' E 002°38'0 0.0
2018-May-30 21:30N 39°34' E 002°38'0 0.0
2018-May-30 20:57N 39°34' E 002°38'0 0.0
2018-May-30 20:29N 39°34' E 002°38'0 0.0
2018-May-30 19:58N 39°34' E 002°38'0 0.0
2018-May-30 19:28N 39°34' E 002°38'0 0.0
2018-May-30 18:58N 39°34' E 002°38'0 0.0
2018-May-30 18:28N 39°34' E 002°38'0 0.0
2018-May-30 17:55N 39°34' E 002°38'0 0.0
2018-May-30 17:28N 39°34' E 002°38'0 0.0
2018-May-30 16:58N 39°34' E 002°38'0 0.0
2018-May-30 16:28N 39°34' E 002°38'0 0.0
2018-May-30 15:58N 39°34' E 002°38'0 0.0
2018-May-30 15:28N 39°34' E 002°38'0 0.0
2018-May-30 14:58N 39°34' E 002°38'0 0.0
2018-May-30 14:28N 39°34' E 002°38'0 0.0
2018-May-30 13:58N 39°34' E 002°38'0 0.0
2018-May-30 13:28N 39°34' E 002°38'0 0.0
2018-May-30 12:58N 39°34' E 002°38'0 0.0
2018-May-30 12:28N 39°34' E 002°38'0 0.0
2018-May-30 11:58N 39°34' E 002°38'0 0.0
2018-May-30 11:28N 39°34' E 002°38'0 0.0
2018-May-30 10:58N 39°34' E 002°38'0 0.0
2018-May-30 10:25N 39°34' E 002°38'0 0.0
2018-May-30 09:58N 39°34' E 002°38'0 0.0
2018-May-30 09:28N 39°34' E 002°38'0 0.0
2018-May-30 08:58N 39°34' E 002°38'0 0.0
2018-May-30 08:28N 39°34' E 002°38'0 0.0
2018-May-30 07:58N 39°34' E 002°38'0 0.0
2018-May-30 07:28N 39°34' E 002°38'0 0.0
2018-May-30 06:55N 39°34' E 002°38'0 0.0
2018-May-30 06:28N 39°34' E 002°38'0 0.0
2018-May-30 05:58N 39°34' E 002°38'0 0.0
2018-May-30 05:28N 39°34' E 002°38'0 0.0
2018-May-30 04:58N 39°34' E 002°38'0 0.0
2018-May-30 04:28N 39°34' E 002°38'0 0.0
2018-May-30 03:58N 39°34' E 002°38'0 0.0
2018-May-30 03:28N 39°34' E 002°38'0 0.0
2018-May-30 02:58N 39°34' E 002°38'0 0.0
2018-May-30 02:28N 39°34' E 002°38'0 0.0
2018-May-30 01:58N 39°34' E 002°38'0 0.0
2018-May-30 01:28N 39°34' E 002°38'0 0.0
2018-May-30 00:58N 39°34' E 002°38'0 0.0
2018-May-30 00:28N 39°34' E 002°38'0 0.0
2018-May-29 23:58N 39°34' E 002°38'0 0.0
2018-May-29 23:28N 39°34' E 002°38'0 0.0
2018-May-29 22:58N 39°34' E 002°38'0 0.0
2018-May-29 22:28N 39°34' E 002°38'0 0.0
2018-May-29 21:58N 39°34' E 002°38'0 0.0
2018-May-29 21:28N 39°34' E 002°38'0 0.0
2018-May-29 20:58N 39°34' E 002°38'0 0.0
2018-May-29 20:28N 39°34' E 002°38'0 0.0
2018-May-29 19:58N 39°34' E 002°38'0 0.0
2018-May-29 19:28N 39°34' E 002°38'0 0.0
2018-May-29 18:58N 39°34' E 002°38'0 0.0
2018-May-29 18:28N 39°34' E 002°38'0 0.0
2018-May-29 17:58N 39°34' E 002°38'0 0.0
2018-May-29 17:28N 39°34' E 002°38'0 0.0
2018-May-29 16:58N 39°34' E 002°38'0 0.0
2018-May-29 16:28N 39°34' E 002°38'0 0.0
2018-May-29 15:58N 39°34' E 002°38'0 0.0
2018-May-29 15:28N 39°34' E 002°38'0 0.0
2018-May-29 14:58N 39°34' E 002°38'0 0.0
2018-May-29 14:28N 39°34' E 002°38'0 0.0
2018-May-29 13:33N 39°34' E 002°38'0 0.0
2018-May-29 13:30N 39°34' E 002°38'0 0.0
2018-May-29 13:00N 39°34' E 002°38'0 0.0
2018-May-29 12:30N 39°34' E 002°38'0 0.0
2018-May-29 12:00N 39°34' E 002°38'0 0.0
2018-May-29 11:30N 39°34' E 002°38'0 0.0
2018-May-29 11:00N 39°34' E 002°38'0 0.0
2018-May-29 10:30N 39°34' E 002°38'0 0.0
2018-May-29 10:00N 39°34' E 002°38'0 0.0
2018-May-29 09:30N 39°34' E 002°38'0 0.0
2018-May-29 09:00N 39°34' E 002°38'0 0.0
2018-May-29 08:30N 39°34' E 002°38'0 0.0
2018-May-29 08:00N 39°34' E 002°38'0 0.0
2018-May-29 07:30N 39°34' E 002°38'0 0.0
2018-May-29 07:00N 39°34' E 002°38'0 0.0
2018-May-29 06:30N 39°34' E 002°38'0 0.0
2018-May-29 06:00N 39°34' E 002°38'0 0.0
2018-May-29 05:30N 39°34' E 002°38'0 0.0
2018-May-29 05:00N 39°34' E 002°38'0 0.0
2018-May-29 04:30N 39°34' E 002°38'0 0.0
2018-May-29 04:00N 39°34' E 002°38'0 0.0
2018-May-29 03:30N 39°34' E 002°38'0 0.0
2018-May-29 03:00N 39°34' E 002°38'0 0.0
2018-May-29 02:30N 39°34' E 002°38'0 0.0
2018-May-29 02:00N 39°34' E 002°38'0 0.0
2018-May-29 01:30N 39°34' E 002°38'0 0.0
2018-May-29 01:00N 39°34' E 002°38'0 0.0
2018-May-29 00:30N 39°34' E 002°38'0 0.0
2018-May-29 00:00N 39°34' E 002°38'0 0.0
2018-May-28 23:30N 39°34' E 002°38'0 0.0
2018-May-28 23:00N 39°34' E 002°38'0 0.0
2018-May-28 22:30N 39°34' E 002°38'0 0.0
2018-May-28 22:00N 39°34' E 002°38'0 0.0
2018-May-28 21:30N 39°34' E 002°38'0 0.0
2018-May-28 21:00N 39°34' E 002°38'0 0.0
2018-May-28 20:30N 39°34' E 002°38'0 0.0
2018-May-28 20:00N 39°34' E 002°38'0 0.0
2018-May-28 19:30N 39°34' E 002°38'0 0.0
2018-May-28 19:00N 39°34' E 002°38'0 0.0
2018-May-28 18:30N 39°34' E 002°38'0 0.0
2018-May-28 18:00N 39°34' E 002°38'0 0.0
2018-May-28 17:30N 39°34' E 002°38'0 0.0
2018-May-28 17:00N 39°34' E 002°38'0 0.0
2018-May-28 16:30N 39°34' E 002°38'0 0.0
2018-May-28 16:00N 39°34' E 002°38'0 0.0
2018-May-28 15:30N 39°34' E 002°38'0 0.0
2018-May-28 15:00N 39°34' E 002°38'0 0.0
2018-May-28 14:30N 39°34' E 002°38'0 0.0
2018-May-28 14:00N 39°34' E 002°38'0 0.0
2018-May-28 13:30N 39°34' E 002°38'0 0.0
2018-May-28 13:00N 39°34' E 002°38'0 0.0
2018-May-28 12:30N 39°34' E 002°38'0 0.0
2018-May-28 12:00N 39°34' E 002°38'0 0.0
2018-May-28 11:30N 39°34' E 002°38'0 0.0
2018-May-28 11:00N 39°34' E 002°38'0 0.0
2018-May-28 10:30N 39°34' E 002°38'0 0.0
2018-May-27 22:25N 39°34' E 002°38'0 0.0
2018-May-27 21:58N 39°34' E 002°38'0 0.0
2018-May-27 21:28N 39°34' E 002°38'0 0.0
2018-May-27 20:58N 39°34' E 002°38'0 0.0
2018-May-27 20:28N 39°34' E 002°38'0 0.0
2018-May-27 19:58N 39°34' E 002°38'0 0.0
2018-May-27 19:28N 39°34' E 002°38'0 0.0
2018-May-27 18:58N 39°34' E 002°38'0 0.0
2018-May-27 18:28N 39°34' E 002°38'0 0.0
2018-May-27 17:58N 39°34' E 002°38'0 0.0
2018-May-27 17:28N 39°34' E 002°38'0 0.0
2018-May-27 16:58N 39°34' E 002°38'0 0.0
2018-May-27 16:28N 39°34' E 002°38'0 0.0
2018-May-27 15:58N 39°34' E 002°38'0 0.0
2018-May-27 15:31N 39°34' E 002°38'0 0.0
2018-May-27 14:58N 39°34' E 002°38'0 0.0
2018-May-27 14:28N 39°34' E 002°38'0 0.0
2018-May-27 14:01N 39°34' E 002°38'0 0.0
2018-May-27 13:31N 39°34' E 002°38'0 0.0
2018-May-27 13:01N 39°34' E 002°38'0 0.0
2018-May-27 12:31N 39°34' E 002°38'0 0.0
2018-May-27 12:01N 39°34' E 002°38'0 0.0
2018-May-27 11:31N 39°34' E 002°38'0 0.0
2018-May-27 11:01N 39°34' E 002°38'0 0.0
2018-May-27 10:28N 39°34' E 002°38'0 0.0
2018-May-27 09:58N 39°34' E 002°38'0 0.1
2018-May-27 09:31N 39°34' E 002°38'0 0.0
2018-May-27 09:01N 39°34' E 002°38'0 0.0
2018-May-27 08:31N 39°34' E 002°38'0 0.0
2018-May-27 08:01N 39°34' E 002°38'0 0.0
2018-May-27 07:28N 39°34' E 002°38'0 0.0
2018-May-27 06:58N 39°34' E 002°38'0 0.0
2018-May-27 06:31N 39°34' E 002°38'0 0.0
2018-May-27 05:58N 39°34' E 002°38'0 0.0
2018-May-27 05:31N 39°34' E 002°38'0 0.0
2018-May-27 05:01N 39°34' E 002°38'0 0.0
2018-May-27 04:31N 39°34' E 002°38'0 0.0
2018-May-27 04:01N 39°34' E 002°38'0 0.0
2018-May-27 03:31N 39°34' E 002°38'0 0.0
2018-May-27 03:01N 39°34' E 002°38'0 0.0
2018-May-27 02:31N 39°34' E 002°38'0 0.0
2018-May-27 02:01N 39°34' E 002°38'0 0.0
2018-May-27 01:31N 39°34' E 002°38'0 0.0
2018-May-27 01:01N 39°34' E 002°38'0 0.0
2018-May-27 00:31N 39°34' E 002°38'0 0.0
2018-May-27 00:01N 39°34' E 002°38'0 0.0
2018-May-26 23:31N 39°34' E 002°38'0 0.0
2018-May-26 23:01N 39°34' E 002°38'0 0.0
2018-May-26 22:31N 39°34' E 002°38'0 0.0
2018-May-26 21:58N 39°34' E 002°38'0 0.0
2018-May-26 21:31N 39°34' E 002°38'0 0.0
2018-May-26 21:01N 39°34' E 002°38'0 0.0
2018-May-26 20:31N 39°34' E 002°38'0 0.0
2018-May-26 20:01N 39°34' E 002°38'0 0.0
2018-May-26 19:31N 39°34' E 002°38'0 0.0
2018-May-26 19:01N 39°34' E 002°38'0 0.0
2018-May-26 18:31N 39°34' E 002°38'0 0.0
2018-May-26 18:00N 39°34' E 002°38'0 0.0
2018-May-26 17:31N 39°34' E 002°38'0 0.0
2018-May-26 17:01N 39°34' E 002°38'0 0.0
2018-May-26 16:31N 39°34' E 002°38'0 0.0
2018-May-26 16:00N 39°34' E 002°38'0 0.0
2018-May-26 15:30N 39°34' E 002°38'0 0.0
2018-May-26 15:00N 39°34' E 002°38'0 0.0
2018-May-26 14:31N 39°34' E 002°38'0 0.0
2018-May-26 14:00N 39°34' E 002°38'0 0.0
2018-May-26 13:30N 39°34' E 002°38'0 0.0
2018-May-26 13:00N 39°34' E 002°38'0 0.0
2018-May-26 12:30N 39°34' E 002°38'0 0.0
2018-May-26 12:00N 39°34' E 002°38'0 0.0
2018-May-26 11:30N 39°34' E 002°38'0 0.0
2018-May-26 11:00N 39°34' E 002°38'0 0.0
2018-May-26 10:30N 39°34' E 002°38'0 0.0
2018-May-26 10:01N 39°34' E 002°38'0 0.0
2018-May-26 09:30N 39°34' E 002°38'0 0.0
2018-May-26 09:00N 39°34' E 002°38'0 0.0
2018-May-26 08:30N 39°34' E 002°38'0 0.0
2018-May-26 07:57N 39°34' E 002°38'0 0.0
2018-May-26 07:30N 39°34' E 002°38'0 0.0
2018-May-26 07:00N 39°34' E 002°38'0 0.0
2018-May-26 06:30N 39°34' E 002°38'0 0.0
2018-May-26 05:30N 39°34' E 002°38'0 0.0
2018-May-26 05:00N 39°34' E 002°38'0 0.0
2018-May-26 04:30N 39°34' E 002°38'0 0.0
2018-May-26 04:00N 39°34' E 002°38'0 0.0
2018-May-26 03:30N 39°34' E 002°38'0 0.0
2018-May-26 03:00N 39°34' E 002°38'0 0.0
2018-May-26 02:30N 39°34' E 002°38'0 0.0
2018-May-26 02:00N 39°34' E 002°38'0 0.0
2018-May-26 01:30N 39°34' E 002°38'0 0.0
2018-May-26 01:00N 39°34' E 002°38'0 0.0
2018-May-26 00:30N 39°34' E 002°38'0 0.0
2018-May-26 00:00N 39°34' E 002°38'0 0.0
2018-May-25 23:30N 39°34' E 002°38'0 0.0
2018-May-25 23:00N 39°34' E 002°38'0 0.0
2018-May-25 22:30N 39°34' E 002°38'0 0.0
2018-May-25 22:00N 39°34' E 002°38'0 0.0
2018-May-25 21:30N 39°34' E 002°38'0 0.0
2018-May-25 21:00N 39°34' E 002°38'0 0.0
2018-May-25 20:21N 39°34' E 002°38'0 0.0
2018-May-25 20:00N 39°34' E 002°38'0 0.0
2018-May-25 19:30N 39°34' E 002°38'0 0.0
2018-May-25 19:00N 39°34' E 002°38'0 0.0
2018-May-25 18:30N 39°34' E 002°38'0 0.0
2018-May-25 18:00N 39°34' E 002°38'0 0.0
2018-May-25 17:30N 39°34' E 002°38'0 0.0
2018-May-25 17:00N 39°34' E 002°38'0 0.0
2018-May-25 16:30N 39°34' E 002°38'0 0.0
2018-May-25 16:00N 39°34' E 002°38'0 0.0
2018-May-25 15:30N 39°34' E 002°38'0 0.0
2018-May-25 15:00N 39°34' E 002°38'0 0.0
2018-May-25 14:30N 39°34' E 002°38'0 0.0
2018-May-25 14:00N 39°34' E 002°38'0 0.0
2018-May-25 13:30N 39°34' E 002°38'0 0.0
2018-May-25 13:00N 39°34' E 002°38'0 0.0
2018-May-25 12:30N 39°34' E 002°38'0 0.0
2018-May-25 12:00N 39°34' E 002°38'0 0.0
2018-May-25 11:30N 39°34' E 002°38'0 0.0
2018-May-25 11:00N 39°34' E 002°38'0 0.0
2018-May-25 10:30N 39°34' E 002°38'0 0.0
2018-May-25 10:00N 39°34' E 002°38'0 0.0
2018-May-25 09:30N 39°34' E 002°38'0 0.0
2018-May-25 09:00N 39°34' E 002°38'0 0.0
2018-May-25 08:30N 39°34' E 002°38'0 0.0
2018-May-25 07:57N 39°34' E 002°38'0 0.0
2018-May-25 07:30N 39°34' E 002°38'0 0.0
2018-May-25 06:58N 39°34' E 002°38'0 0.0
2018-May-25 06:28N 39°34' E 002°38'0 0.0
2018-May-25 05:58N 39°34' E 002°38'0 0.0
2018-May-25 05:28N 39°34' E 002°38'0 0.0
2018-May-25 04:58N 39°34' E 002°38'0 0.0
2018-May-25 04:28N 39°34' E 002°38'0 0.0
2018-May-25 03:58N 39°34' E 002°38'0 0.0
2018-May-25 03:28N 39°34' E 002°38'0 0.0
2018-May-25 02:58N 39°34' E 002°38'0 0.0
2018-May-25 02:28N 39°34' E 002°38'0 0.0
2018-May-25 01:58N 39°34' E 002°38'0 0.0
2018-May-25 01:28N 39°34' E 002°38'0 0.0
2018-May-25 00:58N 39°34' E 002°38'0 0.0
2018-May-25 00:28N 39°34' E 002°38'0 0.0
2018-May-24 23:58N 39°34' E 002°38'0 0.0
2018-May-24 23:28N 39°34' E 002°38'0 0.0
2018-May-24 22:58N 39°34' E 002°38'0 0.0
2018-May-24 22:28N 39°34' E 002°38'0 0.0
2018-May-24 21:58N 39°34' E 002°38'0 0.0
2018-May-24 21:28N 39°34' E 002°38'0 0.0
2018-May-24 20:58N 39°34' E 002°38'0 0.0
2018-May-24 20:28N 39°34' E 002°38'0 0.0
2018-May-24 19:58N 39°34' E 002°38'0 0.0
2018-May-24 19:28N 39°34' E 002°38'0 0.0
2018-May-24 18:58N 39°34' E 002°38'0 0.0
2018-May-24 18:28N 39°34' E 002°38'0 0.0
2018-May-24 17:58N 39°34' E 002°38'0 0.0
2018-May-24 17:28N 39°34' E 002°38'0 0.0
2018-May-24 16:58N 39°34' E 002°38'0 0.0
2018-May-24 16:28N 39°34' E 002°38'0 0.0
2018-May-24 15:58N 39°34' E 002°38'0 0.0
2018-May-24 15:28N 39°34' E 002°38'0 0.0
2018-May-24 14:58N 39°34' E 002°38'0 0.0
2018-May-24 14:28N 39°34' E 002°38'0 0.0
2018-May-24 13:58N 39°34' E 002°38'0 0.0
2018-May-24 13:28N 39°34' E 002°38'0 0.0
2018-May-24 08:58N 39°34' E 002°38'0 0.0
2018-May-24 08:28N 39°34' E 002°38'0 0.7
2018-May-24 07:58N 39°33' E 002°38'0 0.0
2018-May-24 07:28N 39°33' E 002°38'0 0.0
2018-May-24 06:58N 39°33' E 002°38'0 0.0
2018-May-24 06:28N 39°33' E 002°38'0 0.0
2018-May-24 05:58N 39°33' E 002°38'0 0.0
2018-May-24 05:28N 39°33' E 002°38'0 0.0
2018-May-24 04:58N 39°33' E 002°38'0 0.0
2018-May-24 04:28N 39°33' E 002°38'0 0.0
2018-May-24 03:58N 39°33' E 002°38'0 0.0
2018-May-24 03:28N 39°33' E 002°38'0 0.0
2018-May-24 02:55N 39°33' E 002°38'0 0.0
2018-May-24 02:28N 39°33' E 002°38'0 0.0
2018-May-24 01:58N 39°33' E 002°38'0 0.0
2018-May-24 01:28N 39°33' E 002°38'0 0.0
2018-May-24 00:58N 39°33' E 002°38'0 0.0
2018-May-24 00:28N 39°33' E 002°38'0 0.0
2018-May-23 23:58N 39°33' E 002°38'0 0.0
2018-May-23 23:28N 39°33' E 002°38'0 0.0
2018-May-23 22:58N 39°33' E 002°38'0 0.0
2018-May-23 22:28N 39°33' E 002°38'0 0.0
2018-May-23 21:58N 39°33' E 002°38'0 0.0
2018-May-23 21:28N 39°33' E 002°38'0 0.0
2018-May-23 20:58N 39°33' E 002°38'0 0.0
2018-May-23 20:28N 39°33' E 002°38'0 0.0
2018-May-23 19:58N 39°33' E 002°38'0 0.0
2018-May-23 19:28N 39°33' E 002°38'0 0.0
2018-May-23 18:58N 39°33' E 002°38'0 0.0
2018-May-23 18:28N 39°33' E 002°38'0 0.0
2018-May-23 17:58N 39°33' E 002°38'0 0.0
2018-May-23 17:28N 39°33' E 002°38'0 0.0
2018-May-23 16:58N 39°33' E 002°38'0 0.0
2018-May-23 16:28N 39°33' E 002°38'0 0.0
2018-May-23 15:58N 39°33' E 002°38'0 0.0
2018-May-23 15:28N 39°33' E 002°38'0 0.0
2018-May-23 14:58N 39°33' E 002°38'0 0.0
2018-May-23 14:28N 39°33' E 002°38'  
Track history (hours):
 
Tides and Currents Weather Stations Pressure Air Temp Water Temp Dewpoint Dewpoint Depression Visibility Wind Speed Wind Dir Waves Ship Positions

Caryali

Last reported at 2018-Jun-02 14:15 UTC. Time now 2018-Jun-21 14:13 UTC.
Position N 39°16' E 003°05'.
Warning: this ship's position is 18 days out of date.

Length 28 m; draft 2.6 m.

Type: Pleasure craft. MMSI: 538070451.

Date/timePositionNaut miles runAvg speedWind from/ knotsBaromVisibWave heightAir tempDewpointWater temp
2018-Jun-02 14:15N 39°16' E 003°05'2 6.0
2018-Jun-02 13:59N 39°15' E 003°03'3 6.8
2018-Jun-02 13:30N 39°17' E 002°59'4 6.9
2018-Jun-02 12:59N 39°18' E 002°55'3 7.2
2018-Jun-02 12:30N 39°20' E 002°51'4 7.0
2018-Jun-02 12:00N 39°22' E 002°47'4 7.0
2018-Jun-02 11:30N 39°24' E 002°44'4 7.3
2018-Jun-02 11:00N 39°27' E 002°41'4 7.3
2018-Jun-02 10:30N 39°31' E 002°39'3 6.0
2018-Jun-02 10:00N 39°33' E 002°38'0 0.7
2018-Jun-02 09:22N 39°34' E 002°38'0 0.0
2018-Jun-02 08:58N 39°34' E 002°38'0 0.0
2018-Jun-02 08:28N 39°34' E 002°38'0 0.0
2018-Jun-02 07:58N 39°34' E 002°38'0 0.0
2018-Jun-02 07:28N 39°34' E 002°38'0 0.0
2018-Jun-02 06:49N 39°34' E 002°38'0 0.0
2018-Jun-02 06:28N 39°34' E 002°38'0 0.0
2018-Jun-02 05:58N 39°34' E 002°38'0 0.0
2018-Jun-02 05:28N 39°34' E 002°38'0 0.0
2018-Jun-02 04:58N 39°34' E 002°38'0 0.0
2018-Jun-02 04:25N 39°34' E 002°38'0 0.0
2018-Jun-02 03:58N 39°34' E 002°38'0 0.0
2018-Jun-02 03:25N 39°34' E 002°38'0 0.0
2018-Jun-02 02:58N 39°34' E 002°38'0 0.0
2018-Jun-02 02:28N 39°34' E 002°38'0 0.0
2018-Jun-02 01:58N 39°34' E 002°38'0 0.0
2018-Jun-02 01:28N 39°34' E 002°38'0 0.0
2018-Jun-02 00:58N 39°34' E 002°38'0 0.0
2018-Jun-02 00:28N 39°34' E 002°38'0 0.0
2018-Jun-01 23:58N 39°34' E 002°38'0 0.0
2018-Jun-01 23:28N 39°34' E 002°38'0 0.0
2018-Jun-01 22:58N 39°34' E 002°38'0 0.0
2018-Jun-01 22:28N 39°34' E 002°38'0 0.0
2018-Jun-01 21:58N 39°34' E 002°38'0 0.0
2018-Jun-01 21:28N 39°34' E 002°38'0 0.0
2018-Jun-01 20:58N 39°34' E 002°38'0 0.0
2018-Jun-01 20:28N 39°34' E 002°38'0 0.0
2018-Jun-01 19:58N 39°34' E 002°38'0 0.0
2018-Jun-01 19:28N 39°34' E 002°38'0 0.0
2018-Jun-01 18:58N 39°34' E 002°38'0 0.0
2018-Jun-01 18:28N 39°34' E 002°38'0 0.0
2018-Jun-01 17:58N 39°34' E 002°38'0 0.0
2018-Jun-01 17:28N 39°34' E 002°38'0 0.0
2018-Jun-01 16:58N 39°34' E 002°38'0 0.0
2018-Jun-01 16:28N 39°34' E 002°38'0 0.0
2018-Jun-01 15:58N 39°34' E 002°38'0 0.0
2018-Jun-01 15:28N 39°34' E 002°38'0 0.0
2018-Jun-01 14:58N 39°34' E 002°38'0 0.0
2018-Jun-01 14:28N 39°34' E 002°38'0 0.0
2018-Jun-01 13:58N 39°34' E 002°38'0 0.0
2018-Jun-01 13:28N 39°34' E 002°38'0 0.0
2018-Jun-01 12:58N 39°34' E 002°38'0 0.0
2018-Jun-01 12:28N 39°34' E 002°38'0 0.0
2018-Jun-01 11:58N 39°34' E 002°38'0 0.0
2018-Jun-01 11:28N 39°34' E 002°38'0 0.0
2018-Jun-01 10:58N 39°34' E 002°38'0 0.0
2018-Jun-01 10:28N 39°34' E 002°38'0 0.0
2018-Jun-01 09:58N 39°34' E 002°38'0 0.0
2018-Jun-01 09:28N 39°34' E 002°38'0 0.0
2018-Jun-01 08:58N 39°34' E 002°38'0 0.0
2018-Jun-01 08:28N 39°34' E 002°38'0 0.0
2018-Jun-01 07:58N 39°34' E 002°38'0 0.0
2018-Jun-01 07:28N 39°34' E 002°38'0 0.0
2018-Jun-01 06:58N 39°34' E 002°38'0 0.0
2018-Jun-01 06:28N 39°34' E 002°38'0 0.0
2018-Jun-01 05:58N 39°34' E 002°38'0 0.0
2018-Jun-01 05:28N 39°34' E 002°38'0 0.0
2018-Jun-01 04:58N 39°34' E 002°38'0 0.0
2018-Jun-01 04:28N 39°34' E 002°38'0 0.0
2018-Jun-01 03:58N 39°34' E 002°38'0 0.0
2018-Jun-01 03:28N 39°34' E 002°38'0 0.0
2018-Jun-01 02:58N 39°34' E 002°38'0 0.0
2018-Jun-01 02:28N 39°34' E 002°38'0 0.0
2018-Jun-01 01:58N 39°34' E 002°38'0 0.0
2018-Jun-01 01:28N 39°34' E 002°38'0 0.0
2018-Jun-01 00:58N 39°34' E 002°38'0 0.0
2018-Jun-01 00:28N 39°34' E 002°38'0 0.0
2018-May-31 23:58N 39°34' E 002°38'0 0.0
2018-May-31 23:28N 39°34' E 002°38'0 0.0
2018-May-31 22:58N 39°34' E 002°38'0 0.0
2018-May-31 22:28N 39°34' E 002°38'0 0.0
2018-May-31 21:58N 39°34' E 002°38'0 0.0
2018-May-31 21:28N 39°34' E 002°38'0 0.0
2018-May-31 20:58N 39°34' E 002°38'0 0.0
2018-May-31 20:28N 39°34' E 002°38'0 0.0
2018-May-31 19:58N 39°34' E 002°38'0 0.0
2018-May-31 19:28N 39°34' E 002°38'0 0.0
2018-May-31 18:58N 39°34' E 002°38'0 0.0
2018-May-31 18:28N 39°34' E 002°38'0 0.0
2018-May-31 17:58N 39°34' E 002°38'0 0.0
2018-May-31 17:28N 39°34' E 002°38'0 0.0
2018-May-31 16:58N 39°34' E 002°38'0 0.0
2018-May-31 16:28N 39°34' E 002°38'0 0.0
2018-May-31 15:58N 39°34' E 002°38'0 0.0
2018-May-31 15:28N 39°34' E 002°38'0 0.0
2018-May-31 14:58N 39°34' E 002°38'0 0.0
2018-May-31 14:28N 39°34' E 002°38'0 0.0
2018-May-31 13:58N 39°34' E 002°38'0 0.0
2018-May-31 13:28N 39°34' E 002°38'0 0.0
2018-May-31 12:58N 39°34' E 002°38'0 0.0
2018-May-31 12:30N 39°34' E 002°38'0 0.0
2018-May-31 12:00N 39°34' E 002°38'0 0.0
2018-May-31 11:30N 39°34' E 002°38'0 0.0
2018-May-31 11:00N 39°34' E 002°38'0 0.0
2018-May-31 10:30N 39°34' E 002°38'0 0.0
2018-May-31 10:00N 39°34' E 002°38'0 0.0
2018-May-31 09:30N 39°34' E 002°38'0 0.0
2018-May-31 09:00N 39°34' E 002°38'0 0.0
2018-May-31 08:30N 39°34' E 002°38'0 0.0
2018-May-31 08:00N 39°34' E 002°38'0 0.0
2018-May-31 07:30N 39°34' E 002°38'0 0.0
2018-May-31 07:00N 39°34' E 002°38'0 0.0
2018-May-31 06:30N 39°34' E 002°38'0 0.0
2018-May-31 06:00N 39°34' E 002°38'0 0.0
2018-May-31 05:30N 39°34' E 002°38'0 0.0
2018-May-31 05:00N 39°34' E 002°38'0 0.0
2018-May-31 04:30N 39°34' E 002°38'0 0.0
2018-May-31 04:00N 39°34' E 002°38'0 0.0
2018-May-31 03:30N 39°34' E 002°38'0 0.0
2018-May-31 03:00N 39°34' E 002°38'0 0.0
2018-May-31 02:30N 39°34' E 002°38'0 0.0
2018-May-31 02:00N 39°34' E 002°38'0 0.0
2018-May-31 01:30N 39°34' E 002°38'0 0.0
2018-May-31 01:00N 39°34' E 002°38'0 0.0
2018-May-31 00:30N 39°34' E 002°38'0 0.0
2018-May-31 00:00N 39°34' E 002°38'0 0.0
2018-May-30 23:30N 39°34' E 002°38'0 0.0
2018-May-30 23:00N 39°34' E 002°38'0 0.0
2018-May-30 22:30N 39°34' E 002°38'0 0.0
2018-May-30 22:00N 39°34' E 002°38'0 0.0
2018-May-30 21:30N 39°34' E 002°38'0 0.0
2018-May-30 20:57N 39°34' E 002°38'0 0.0
2018-May-30 20:29N 39°34' E 002°38'0 0.0
2018-May-30 19:58N 39°34' E 002°38'0 0.0
2018-May-30 19:28N 39°34' E 002°38'0 0.0
2018-May-30 18:58N 39°34' E 002°38'0 0.0
2018-May-30 18:28N 39°34' E 002°38'0 0.0
2018-May-30 17:55N 39°34' E 002°38'0 0.0
2018-May-30 17:28N 39°34' E 002°38'0 0.0
2018-May-30 16:58N 39°34' E 002°38'0 0.0
2018-May-30 16:28N 39°34' E 002°38'0 0.0
2018-May-30 15:58N 39°34' E 002°38'0 0.0
2018-May-30 15:28N 39°34' E 002°38'0 0.0
2018-May-30 14:58N 39°34' E 002°38'0 0.0
2018-May-30 14:28N 39°34' E 002°38'0 0.0
2018-May-30 13:58N 39°34' E 002°38'0 0.0
2018-May-30 13:28N 39°34' E 002°38'0 0.0
2018-May-30 12:58N 39°34' E 002°38'0 0.0
2018-May-30 12:28N 39°34' E 002°38'0 0.0
2018-May-30 11:58N 39°34' E 002°38'0 0.0
2018-May-30 11:28N 39°34' E 002°38'0 0.0
2018-May-30 10:58N 39°34' E 002°38'0 0.0
2018-May-30 10:25N 39°34' E 002°38'0 0.0
2018-May-30 09:58N 39°34' E 002°38'0 0.0
2018-May-30 09:28N 39°34' E 002°38'0 0.0
2018-May-30 08:58N 39°34' E 002°38'0 0.0
2018-May-30 08:28N 39°34' E 002°38'0 0.0
2018-May-30 07:58N 39°34' E 002°38'0 0.0
2018-May-30 07:28N 39°34' E 002°38'0 0.0
2018-May-30 06:55N 39°34' E 002°38'0 0.0
2018-May-30 06:28N 39°34' E 002°38'0 0.0
2018-May-30 05:58N 39°34' E 002°38'0 0.0
2018-May-30 05:28N 39°34' E 002°38'0 0.0
2018-May-30 04:58N 39°34' E 002°38'0 0.0
2018-May-30 04:28N 39°34' E 002°38'0 0.0
2018-May-30 03:58N 39°34' E 002°38'0 0.0
2018-May-30 03:28N 39°34' E 002°38'0 0.0
2018-May-30 02:58N 39°34' E 002°38'0 0.0
2018-May-30 02:28N 39°34' E 002°38'0 0.0
2018-May-30 01:58N 39°34' E 002°38'0 0.0
2018-May-30 01:28N 39°34' E 002°38'0 0.0
2018-May-30 00:58N 39°34' E 002°38'0 0.0
2018-May-30 00:28N 39°34' E 002°38'0 0.0
2018-May-29 23:58N 39°34' E 002°38'0 0.0
2018-May-29 23:28N 39°34' E 002°38'0 0.0
2018-May-29 22:58N 39°34' E 002°38'0 0.0
2018-May-29 22:28N 39°34' E 002°38'0 0.0
2018-May-29 21:58N 39°34' E 002°38'0 0.0
2018-May-29 21:28N 39°34' E 002°38'0 0.0
2018-May-29 20:58N 39°34' E 002°38'0 0.0
2018-May-29 20:28N 39°34' E 002°38'0 0.0
2018-May-29 19:58N 39°34' E 002°38'0 0.0
2018-May-29 19:28N 39°34' E 002°38'0 0.0
2018-May-29 18:58N 39°34' E 002°38'0 0.0
2018-May-29 18:28N 39°34' E 002°38'0 0.0
2018-May-29 17:58N 39°34' E 002°38'0 0.0
2018-May-29 17:28N 39°34' E 002°38'0 0.0
2018-May-29 16:58N 39°34' E 002°38'0 0.0
2018-May-29 16:28N 39°34' E 002°38'0 0.0
2018-May-29 15:58N 39°34' E 002°38'0 0.0
2018-May-29 15:28N 39°34' E 002°38'0 0.0
2018-May-29 14:58N 39°34' E 002°38'0 0.0
2018-May-29 14:28N 39°34' E 002°38'0 0.0
2018-May-29 13:33N 39°34' E 002°38'0 0.0
2018-May-29 13:30N 39°34' E 002°38'0 0.0
2018-May-29 13:00N 39°34' E 002°38'0 0.0
2018-May-29 12:30N 39°34' E 002°38'0 0.0
2018-May-29 12:00N 39°34' E 002°38'0 0.0
2018-May-29 11:30N 39°34' E 002°38'0 0.0
2018-May-29 11:00N 39°34' E 002°38'0 0.0
2018-May-29 10:30N 39°34' E 002°38'0 0.0
2018-May-29 10:00N 39°34' E 002°38'0 0.0
2018-May-29 09:30N 39°34' E 002°38'0 0.0
2018-May-29 09:00N 39°34' E 002°38'0 0.0
2018-May-29 08:30N 39°34' E 002°38'0 0.0
2018-May-29 08:00N 39°34' E 002°38'0 0.0
2018-May-29 07:30N 39°34' E 002°38'0 0.0
2018-May-29 07:00N 39°34' E 002°38'0 0.0
2018-May-29 06:30N 39°34' E 002°38'0 0.0
2018-May-29 06:00N 39°34' E 002°38'0 0.0
2018-May-29 05:30N 39°34' E 002°38'0 0.0
2018-May-29 05:00N 39°34' E 002°38'0 0.0
2018-May-29 04:30N 39°34' E 002°38'0 0.0
2018-May-29 04:00N 39°34' E 002°38'0 0.0
2018-May-29 03:30N 39°34' E 002°38'0 0.0
2018-May-29 03:00N 39°34' E 002°38'0 0.0
2018-May-29 02:30N 39°34' E 002°38'0 0.0
2018-May-29 02:00N 39°34' E 002°38'0 0.0
2018-May-29 01:30N 39°34' E 002°38'0 0.0
2018-May-29 01:00N 39°34' E 002°38'0 0.0
2018-May-29 00:30N 39°34' E 002°38'0 0.0
2018-May-29 00:00N 39°34' E 002°38'0 0.0
2018-May-28 23:30N 39°34' E 002°38'0 0.0
2018-May-28 23:00N 39°34' E 002°38'0 0.0
2018-May-28 22:30N 39°34' E 002°38'0 0.0
2018-May-28 22:00N 39°34' E 002°38'0 0.0
2018-May-28 21:30N 39°34' E 002°38'0 0.0
2018-May-28 21:00N 39°34' E 002°38'0 0.0
2018-May-28 20:30N 39°34' E 002°38'0 0.0
2018-May-28 20:00N 39°34' E 002°38'0 0.0
2018-May-28 19:30N 39°34' E 002°38'0 0.0
2018-May-28 19:00N 39°34' E 002°38'0 0.0
2018-May-28 18:30N 39°34' E 002°38'0 0.0
2018-May-28 18:00N 39°34' E 002°38'0 0.0
2018-May-28 17:30N 39°34' E 002°38'0 0.0
2018-May-28 17:00N 39°34' E 002°38'0 0.0
2018-May-28 16:30N 39°34' E 002°38'0 0.0
2018-May-28 16:00N 39°34' E 002°38'0 0.0
2018-May-28 15:30N 39°34' E 002°38'0 0.0
2018-May-28 15:00N 39°34' E 002°38'0 0.0
2018-May-28 14:30N 39°34' E 002°38'0 0.0
2018-May-28 14:00N 39°34' E 002°38'0 0.0
2018-May-28 13:30N 39°34' E 002°38'0 0.0
2018-May-28 13:00N 39°34' E 002°38'0 0.0
2018-May-28 12:30N 39°34' E 002°38'0 0.0
2018-May-28 12:00N 39°34' E 002°38'0 0.0
2018-May-28 11:30N 39°34' E 002°38'0 0.0
2018-May-28 11:00N 39°34' E 002°38'0 0.0
2018-May-28 10:30N 39°34' E 002°38'0 0.0
2018-May-27 22:25N 39°34' E 002°38'0 0.0
2018-May-27 21:58N 39°34' E 002°38'0 0.0
2018-May-27 21:28N 39°34' E 002°38'0 0.0
2018-May-27 20:58N 39°34' E 002°38'0 0.0
2018-May-27 20:28N 39°34' E 002°38'0 0.0
2018-May-27 19:58N 39°34' E 002°38'0 0.0
2018-May-27 19:28N 39°34' E 002°38'0 0.0
2018-May-27 18:58N 39°34' E 002°38'0 0.0
2018-May-27 18:28N 39°34' E 002°38'0 0.0
2018-May-27 17:58N 39°34' E 002°38'0 0.0
2018-May-27 17:28N 39°34' E 002°38'0 0.0
2018-May-27 16:58N 39°34' E 002°38'0 0.0
2018-May-27 16:28N 39°34' E 002°38'0 0.0
2018-May-27 15:58N 39°34' E 002°38'0 0.0
2018-May-27 15:31N 39°34' E 002°38'0 0.0
2018-May-27 14:58N 39°34' E 002°38'0 0.0
2018-May-27 14:28N 39°34' E 002°38'0 0.0
2018-May-27 14:01N 39°34' E 002°38'0 0.0
2018-May-27 13:31N 39°34' E 002°38'0 0.0
2018-May-27 13:01N 39°34' E 002°38'0 0.0
2018-May-27 12:31N 39°34' E 002°38'0 0.0
2018-May-27 12:01N 39°34' E 002°38'0 0.0
2018-May-27 11:31N 39°34' E 002°38'0 0.0
2018-May-27 11:01N 39°34' E 002°38'0 0.0
2018-May-27 10:28N 39°34' E 002°38'0 0.0
2018-May-27 09:58N 39°34' E 002°38'0 0.1
2018-May-27 09:31N 39°34' E 002°38'0 0.0
2018-May-27 09:01N 39°34' E 002°38'0 0.0
2018-May-27 08:31N 39°34' E 002°38'0 0.0
2018-May-27 08:01N 39°34' E 002°38'0 0.0
2018-May-27 07:28N 39°34' E 002°38'0 0.0
2018-May-27 06:58N 39°34' E 002°38'0 0.0
2018-May-27 06:31N 39°34' E 002°38'0 0.0
2018-May-27 05:58N 39°34' E 002°38'0 0.0
2018-May-27 05:31N 39°34' E 002°38'0 0.0
2018-May-27 05:01N 39°34' E 002°38'0 0.0
2018-May-27 04:31N 39°34' E 002°38'0 0.0
2018-May-27 04:01N 39°34' E 002°38'0 0.0
2018-May-27 03:31N 39°34' E 002°38'0 0.0
2018-May-27 03:01N 39°34' E 002°38'0 0.0
2018-May-27 02:31N 39°34' E 002°38'0 0.0
2018-May-27 02:01N 39°34' E 002°38'0 0.0
2018-May-27 01:31N 39°34' E 002°38'0 0.0
2018-May-27 01:01N 39°34' E 002°38'0 0.0
2018-May-27 00:31N 39°34' E 002°38'0 0.0
2018-May-27 00:01N 39°34' E 002°38'0 0.0
2018-May-26 23:31N 39°34' E 002°38'0 0.0
2018-May-26 23:01N 39°34' E 002°38'0 0.0
2018-May-26 22:31N 39°34' E 002°38'0 0.0
2018-May-26 21:58N 39°34' E 002°38'0 0.0
2018-May-26 21:31N 39°34' E 002°38'0 0.0
2018-May-26 21:01N 39°34' E 002°38'0 0.0
2018-May-26 20:31N 39°34' E 002°38'0 0.0
2018-May-26 20:01N 39°34' E 002°38'0 0.0
2018-May-26 19:31N 39°34' E 002°38'0 0.0
2018-May-26 19:01N 39°34' E 002°38'0 0.0
2018-May-26 18:31N 39°34' E 002°38'0 0.0
2018-May-26 18:00N 39°34' E 002°38'0 0.0
2018-May-26 17:31N 39°34' E 002°38'0 0.0
2018-May-26 17:01N 39°34' E 002°38'0 0.0
2018-May-26 16:31N 39°34' E 002°38'0 0.0
2018-May-26 16:00N 39°34' E 002°38'0 0.0
2018-May-26 15:30N 39°34' E 002°38'0 0.0
2018-May-26 15:00N 39°34' E 002°38'0 0.0
2018-May-26 14:31N 39°34' E 002°38'0 0.0
2018-May-26 14:00N 39°34' E 002°38'0 0.0
2018-May-26 13:30N 39°34' E 002°38'0 0.0
2018-May-26 13:00N 39°34' E 002°38'0 0.0
2018-May-26 12:30N 39°34' E 002°38'0 0.0
2018-May-26 12:00N 39°34' E 002°38'0 0.0
2018-May-26 11:30N 39°34' E 002°38'0 0.0
2018-May-26 11:00N 39°34' E 002°38'0 0.0
2018-May-26 10:30N 39°34' E 002°38'0 0.0
2018-May-26 10:01N 39°34' E 002°38'0 0.0
2018-May-26 09:30N 39°34' E 002°38'0 0.0
2018-May-26 09:00N 39°34' E 002°38'0 0.0
2018-May-26 08:30N 39°34' E 002°38'0 0.0
2018-May-26 07:57N 39°34' E 002°38'0 0.0
2018-May-26 07:30N 39°34' E 002°38'0 0.0
2018-May-26 07:00N 39°34' E 002°38'0 0.0
2018-May-26 06:30N 39°34' E 002°38'0 0.0
2018-May-26 05:30N 39°34' E 002°38'0 0.0
2018-May-26 05:00N 39°34' E 002°38'0 0.0
2018-May-26 04:30N 39°34' E 002°38'0 0.0
2018-May-26 04:00N 39°34' E 002°38'0 0.0
2018-May-26 03:30N 39°34' E 002°38'0 0.0
2018-May-26 03:00N 39°34' E 002°38'0 0.0
2018-May-26 02:30N 39°34' E 002°38'0 0.0
2018-May-26 02:00N 39°34' E 002°38'0 0.0
2018-May-26 01:30N 39°34' E 002°38'0 0.0
2018-May-26 01:00N 39°34' E 002°38'0 0.0
2018-May-26 00:30N 39°34' E 002°38'0 0.0
2018-May-26 00:00N 39°34' E 002°38'0 0.0
2018-May-25 23:30N 39°34' E 002°38'0 0.0
2018-May-25 23:00N 39°34' E 002°38'0 0.0
2018-May-25 22:30N 39°34' E 002°38'0 0.0
2018-May-25 22:00N 39°34' E 002°38'0 0.0
2018-May-25 21:30N 39°34' E 002°38'0 0.0
2018-May-25 21:00N 39°34' E 002°38'0 0.0
2018-May-25 20:21N 39°34' E 002°38'0 0.0
2018-May-25 20:00N 39°34' E 002°38'0 0.0
2018-May-25 19:30N 39°34' E 002°38'0 0.0
2018-May-25 19:00N 39°34' E 002°38'0 0.0
2018-May-25 18:30N 39°34' E 002°38'0 0.0
2018-May-25 18:00N 39°34' E 002°38'0 0.0
2018-May-25 17:30N 39°34' E 002°38'0 0.0
2018-May-25 17:00N 39°34' E 002°38'0 0.0
2018-May-25 16:30N 39°34' E 002°38'0 0.0
2018-May-25 16:00N 39°34' E 002°38'0 0.0
2018-May-25 15:30N 39°34' E 002°38'0 0.0
2018-May-25 15:00N 39°34' E 002°38'0 0.0
2018-May-25 14:30N 39°34' E 002°38'0 0.0
2018-May-25 14:00N 39°34' E 002°38'0 0.0
2018-May-25 13:30N 39°34' E 002°38'0 0.0
2018-May-25 13:00N 39°34' E 002°38'0 0.0
2018-May-25 12:30N 39°34' E 002°38'0 0.0
2018-May-25 12:00N 39°34' E 002°38'0 0.0
2018-May-25 11:30N 39°34' E 002°38'0 0.0
2018-May-25 11:00N 39°34' E 002°38'0 0.0
2018-May-25 10:30N 39°34' E 002°38'0 0.0
2018-May-25 10:00N 39°34' E 002°38'0 0.0
2018-May-25 09:30N 39°34' E 002°38'0 0.0
2018-May-25 09:00N 39°34' E 002°38'0 0.0
2018-May-25 08:30N 39°34' E 002°38'0 0.0
2018-May-25 07:57N 39°34' E 002°38'0 0.0
2018-May-25 07:30N 39°34' E 002°38'0 0.0
2018-May-25 06:58N 39°34' E 002°38'0 0.0
2018-May-25 06:28N 39°34' E 002°38'0 0.0
2018-May-25 05:58N 39°34' E 002°38'0 0.0
2018-May-25 05:28N 39°34' E 002°38'0 0.0
2018-May-25 04:58N 39°34' E 002°38'0 0.0
2018-May-25 04:28N 39°34' E 002°38'0 0.0
2018-May-25 03:58N 39°34' E 002°38'0 0.0
2018-May-25 03:28N 39°34' E 002°38'0 0.0
2018-May-25 02:58N 39°34' E 002°38'0 0.0
2018-May-25 02:28N 39°34' E 002°38'0 0.0
2018-May-25 01:58N 39°34' E 002°38'0 0.0
2018-May-25 01:28N 39°34' E 002°38'0 0.0
2018-May-25 00:58N 39°34' E 002°38'0 0.0
2018-May-25 00:28N 39°34' E 002°38'0 0.0
2018-May-24 23:58N 39°34' E 002°38'0 0.0
2018-May-24 23:28N 39°34' E 002°38'0 0.0
2018-May-24 22:58N 39°34' E 002°38'0 0.0
2018-May-24 22:28N 39°34' E 002°38'0 0.0
2018-May-24 21:58N 39°34' E 002°38'0 0.0
2018-May-24 21:28N 39°34' E 002°38'0 0.0
2018-May-24 20:58N 39°34' E 002°38'0 0.0
2018-May-24 20:28N 39°34' E 002°38'0 0.0
2018-May-24 19:58N 39°34' E 002°38'0 0.0
2018-May-24 19:28N 39°34' E 002°38'0 0.0
2018-May-24 18:58N 39°34' E 002°38'0 0.0
2018-May-24 18:28N 39°34' E 002°38'0 0.0
2018-May-24 17:58N 39°34' E 002°38'0 0.0
2018-May-24 17:28N 39°34' E 002°38'0 0.0
2018-May-24 16:58N 39°34' E 002°38'0 0.0
2018-May-24 16:28N 39°34' E 002°38'0 0.0
2018-May-24 15:58N 39°34' E 002°38'0 0.0
2018-May-24 15:28N 39°34' E 002°38'0 0.0
2018-May-24 14:58N 39°34' E 002°38'0 0.0
2018-May-24 14:28N 39°34' E 002°38'0 0.0
2018-May-24 13:58N 39°34' E 002°38'0 0.0
2018-May-24 13:28N 39°34' E 002°38'0 0.0
2018-May-24 08:58N 39°34' E 002°38'0 0.0
2018-May-24 08:28N 39°34' E 002°38'0 0.7
2018-May-24 07:58N 39°33' E 002°38'0 0.0
2018-May-24 07:28N 39°33' E 002°38'0 0.0
2018-May-24 06:58N 39°33' E 002°38'0 0.0
2018-May-24 06:28N 39°33' E 002°38'0 0.0
2018-May-24 05:58N 39°33' E 002°38'0 0.0
2018-May-24 05:28N 39°33' E 002°38'0 0.0
2018-May-24 04:58N 39°33' E 002°38'0 0.0
2018-May-24 04:28N 39°33' E 002°38'0 0.0
2018-May-24 03:58N 39°33' E 002°38'0 0.0
2018-May-24 03:28N 39°33' E 002°38'0 0.0
2018-May-24 02:55N 39°33' E 002°38'0 0.0
2018-May-24 02:28N 39°33' E 002°38'0 0.0
2018-May-24 01:58N 39°33' E 002°38'0 0.0
2018-May-24 01:28N 39°33' E 002°38'0 0.0
2018-May-24 00:58N 39°33' E 002°38'0 0.0
2018-May-24 00:28N 39°33' E 002°38'0 0.0
2018-May-23 23:58N 39°33' E 002°38'0 0.0
2018-May-23 23:28N 39°33' E 002°38'0 0.0
2018-May-23 22:58N 39°33' E 002°38'0 0.0
2018-May-23 22:28N 39°33' E 002°38'0 0.0
2018-May-23 21:58N 39°33' E 002°38'0 0.0
2018-May-23 21:28N 39°33' E 002°38'0 0.0
2018-May-23 20:58N 39°33' E 002°38'0 0.0
2018-May-23 20:28N 39°33' E 002°38'0 0.0
2018-May-23 19:58N 39°33' E 002°38'0 0.0
2018-May-23 19:28N 39°33' E 002°38'0 0.0
2018-May-23 18:58N 39°33' E 002°38'0 0.0
2018-May-23 18:28N 39°33' E 002°38'0 0.0
2018-May-23 17:58N 39°33' E 002°38'0 0.0
2018-May-23 17:28N 39°33' E 002°38'0 0.0
2018-May-23 16:58N 39°33' E 002°38'0 0.0
2018-May-23 16:28N 39°33' E 002°38'0 0.0
2018-May-23 15:58N 39°33' E 002°38'0 0.0
2018-May-23 15:28N 39°33' E 002°38'0 0.0
2018-May-23 14:58N 39°33' E 002°38'0 0.0
2018-May-23 14:28N 39°33' E 002°38'  

Dump ship's entire track history